sensor_id;sensor_type;location;lat;lon;timestamp;pressure;altitude;pressure_sealevel;temperature;humidity
69624;BME280;56843;52.020;5.670;2022-09-09T00:08:00;100581.69;;;12.72;92.57
69624;BME280;56843;52.020;5.670;2022-09-09T00:09:40;100574.78;;;12.71;92.22
69624;BME280;56843;52.020;5.670;2022-09-09T00:11:21;100575.78;;;12.66;92.71
69624;BME280;56843;52.020;5.670;2022-09-09T00:14:37;100576.72;;;12.58;92.81
69624;BME280;56843;52.020;5.670;2022-09-09T00:16:25;100575.94;;;12.57;92.87
69624;BME280;56843;52.020;5.670;2022-09-09T00:19:50;100575.75;;;12.50;93.13
69624;BME280;56843;52.020;5.670;2022-09-09T00:21:30;100573.84;;;12.51;92.75
69624;BME280;56843;52.020;5.670;2022-09-09T00:23:12;100575.31;;;12.48;92.93
69624;BME280;56843;52.020;5.670;2022-09-09T00:24:53;100568.41;;;12.47;93.27
69624;BME280;56843;52.020;5.670;2022-09-09T00:28:28;100570.97;;;12.44;93.36
69624;BME280;56843;52.020;5.670;2022-09-09T00:30:32;100565.59;;;12.44;92.84
69624;BME280;56843;52.020;5.670;2022-09-09T00:32:12;100572.44;;;12.41;93.03
69624;BME280;56843;52.020;5.670;2022-09-09T00:33:44;100568.19;;;12.40;93.11
69624;BME280;56843;52.020;5.670;2022-09-09T00:35:21;100571.97;;;12.39;93.06
69624;BME280;56843;52.020;5.670;2022-09-09T00:36:53;100567.75;;;12.38;93.32
69624;BME280;56843;52.020;5.670;2022-09-09T00:39:05;100568.88;;;12.37;93.38
69624;BME280;56843;52.020;5.670;2022-09-09T00:40:40;100564.88;;;12.31;93.25
69624;BME280;56843;52.020;5.670;2022-09-09T00:43:42;100564.00;;;12.27;93.29
69624;BME280;56843;52.020;5.670;2022-09-09T00:50:59;100562.47;;;12.14;93.98
69624;BME280;56843;52.020;5.670;2022-09-09T00:55:03;100550.00;;;12.06;93.87
69624;BME280;56843;52.020;5.670;2022-09-09T00:56:38;100559.06;;;12.02;93.92
69624;BME280;56843;52.020;5.670;2022-09-09T00:58:12;100551.34;;;12.00;93.99
69624;BME280;56843;52.020;5.670;2022-09-09T00:59:47;100547.44;;;11.98;94.10
69624;BME280;56843;52.020;5.670;2022-09-09T01:03:19;100547.34;;;11.94;94.20
69624;BME280;56843;52.020;5.670;2022-09-09T01:04:53;100554.94;;;11.92;94.16
69624;BME280;56843;52.020;5.670;2022-09-09T01:06:35;100554.94;;;11.92;94.07
69624;BME280;56843;52.020;5.670;2022-09-09T01:08:18;100554.50;;;11.90;94.38
69624;BME280;56843;52.020;5.670;2022-09-09T01:09:57;100554.06;;;11.88;94.42
69624;BME280;56843;52.020;5.670;2022-09-09T01:11:49;100554.38;;;11.87;94.27
69624;BME280;56843;52.020;5.670;2022-09-09T01:13:27;100559.28;;;11.85;94.48
69624;BME280;56843;52.020;5.670;2022-09-09T01:15:16;100554.63;;;11.82;94.65
69624;BME280;56843;52.020;5.670;2022-09-09T01:16:57;100556.06;;;11.79;94.68
69624;BME280;56843;52.020;5.670;2022-09-09T01:18:37;100562.53;;;11.78;94.25
69624;BME280;56843;52.020;5.670;2022-09-09T01:22:05;100560.53;;;11.75;94.42
69624;BME280;56843;52.020;5.670;2022-09-09T01:27:46;100557.28;;;11.69;94.69
69624;BME280;56843;52.020;5.670;2022-09-09T01:29:21;100555.41;;;11.70;94.62
69624;BME280;56843;52.020;5.670;2022-09-09T01:30:52;100552.72;;;11.70;94.77
69624;BME280;56843;52.020;5.670;2022-09-09T01:32:59;100556.50;;;11.69;94.88
69624;BME280;56843;52.020;5.670;2022-09-09T01:34:36;100549.59;;;11.68;94.66
69624;BME280;56843;52.020;5.670;2022-09-09T01:36:13;100554.53;;;11.66;94.65
69624;BME280;56843;52.020;5.670;2022-09-09T01:37:51;100542.25;;;11.65;94.64
69624;BME280;56843;52.020;5.670;2022-09-09T01:39:23;100555.63;;;11.65;94.91
69624;BME280;56843;52.020;5.670;2022-09-09T01:41:01;100550.63;;;11.63;94.79
69624;BME280;56843;52.020;5.670;2022-09-09T01:42:43;100552.41;;;11.59;94.68
69624;BME280;56843;52.020;5.670;2022-09-09T01:44:14;100543.59;;;11.59;94.55
69624;BME280;56843;52.020;5.670;2022-09-09T01:45:49;100548.16;;;11.58;94.80
69624;BME280;56843;52.020;5.670;2022-09-09T01:47:21;100556.53;;;11.57;94.64
69624;BME280;56843;52.020;5.670;2022-09-09T01:49:18;100549.91;;;11.54;94.86
69624;BME280;56843;52.020;5.670;2022-09-09T01:50:49;100548.34;;;11.53;94.95
69624;BME280;56843;52.020;5.670;2022-09-09T01:52:20;100552.94;;;11.53;95.00
69624;BME280;56843;52.020;5.670;2022-09-09T01:53:50;100551.34;;;11.52;95.09
69624;BME280;56843;52.020;5.670;2022-09-09T01:55:30;100553.59;;;11.50;95.02
69624;BME280;56843;52.020;5.670;2022-09-09T01:57:18;100552.81;;;11.49;94.91
69624;BME280;56843;52.020;5.670;2022-09-09T01:59:06;100547.78;;;11.48;95.15
69624;BME280;56843;52.020;5.670;2022-09-09T02:00:50;100545.78;;;11.45;94.94
69624;BME280;56843;52.020;5.670;2022-09-09T02:02:43;100547.66;;;11.44;95.13
69624;BME280;56843;52.020;5.670;2022-09-09T02:04:41;100550.69;;;11.43;95.18
69624;BME280;56843;52.020;5.670;2022-09-09T02:06:34;100546.03;;;11.40;95.28
69624;BME280;56843;52.020;5.670;2022-09-09T02:10:17;100549.34;;;11.37;95.46
69624;BME280;56843;52.020;5.670;2022-09-09T02:12:03;100548.91;;;11.35;94.97
69624;BME280;56843;52.020;5.670;2022-09-09T02:13:46;100541.22;;;11.33;95.33
69624;BME280;56843;52.020;5.670;2022-09-09T02:16:03;100541.22;;;11.33;95.14
69624;BME280;56843;52.020;5.670;2022-09-09T02:17:38;100545.66;;;11.29;95.15
69624;BME280;56843;52.020;5.670;2022-09-09T02:19:27;100537.63;;;11.29;95.39
69624;BME280;56843;52.020;5.670;2022-09-09T02:21:05;100538.31;;;11.26;95.12
69624;BME280;56843;52.020;5.670;2022-09-09T02:22:39;100531.41;;;11.25;95.46
69624;BME280;56843;52.020;5.670;2022-09-09T02:24:12;100526.41;;;11.24;95.33
69624;BME280;56843;52.020;5.670;2022-09-09T02:25:51;100526.75;;;11.22;95.25
69624;BME280;56843;52.020;5.670;2022-09-09T02:27:27;100520.59;;;11.22;95.43
69624;BME280;56843;52.020;5.670;2022-09-09T02:29:01;100527.84;;;11.21;95.44
69624;BME280;56843;52.020;5.670;2022-09-09T02:30:34;100530.06;;;11.19;95.24
69624;BME280;56843;52.020;5.670;2022-09-09T02:32:09;100531.94;;;11.19;95.31
69624;BME280;56843;52.020;5.670;2022-09-09T02:33:46;100529.63;;;11.17;95.37
69624;BME280;56843;52.020;5.670;2022-09-09T02:35:21;100527.25;;;11.16;95.33
69624;BME280;56843;52.020;5.670;2022-09-09T02:36:55;100523.03;;;11.15;95.50
69624;BME280;56843;52.020;5.670;2022-09-09T02:38:29;100526.06;;;11.13;95.51
69624;BME280;56843;52.020;5.670;2022-09-09T02:40:09;100533.28;;;11.13;95.73
69624;BME280;56843;52.020;5.670;2022-09-09T02:41:43;100527.06;;;11.08;95.71
69624;BME280;56843;52.020;5.670;2022-09-09T02:43:15;100533.16;;;11.09;95.74
69624;BME280;56843;52.020;5.670;2022-09-09T02:44:49;100532.41;;;11.08;95.71
69624;BME280;56843;52.020;5.670;2022-09-09T02:46:36;100529.72;;;11.08;95.60
69624;BME280;56843;52.020;5.670;2022-09-09T02:48:13;100530.38;;;11.05;95.68
69624;BME280;56843;52.020;5.670;2022-09-09T02:50:04;100526.91;;;11.05;95.85
69624;BME280;56843;52.020;5.670;2022-09-09T02:51:53;100526.03;;;11.01;95.79
69624;BME280;56843;52.020;5.670;2022-09-09T02:55:23;100517.56;;;10.99;95.51
69624;BME280;56843;52.020;5.670;2022-09-09T02:57:08;100520.56;;;10.97;95.94
69624;BME280;56843;52.020;5.670;2022-09-09T02:58:42;100519.78;;;10.97;95.98
69624;BME280;56843;52.020;5.670;2022-09-09T03:00:13;100521.66;;;10.96;95.74
69624;BME280;56843;52.020;5.670;2022-09-09T03:01:44;100514.00;;;10.95;95.75
69624;BME280;56843;52.020;5.670;2022-09-09T03:03:16;100519.66;;;10.93;95.85
69624;BME280;56843;52.020;5.670;2022-09-09T03:04:48;100521.88;;;10.91;95.90
69624;BME280;56843;52.020;5.670;2022-09-09T03:06:22;100520.78;;;10.92;96.02
69624;BME280;56843;52.020;5.670;2022-09-09T03:07:59;100518.44;;;10.91;96.00
69624;BME280;56843;52.020;5.670;2022-09-09T03:09:30;100523.00;;;10.90;96.00
69624;BME280;56843;52.020;5.670;2022-09-09T03:11:00;100523.34;;;10.89;95.71
69624;BME280;56843;52.020;5.670;2022-09-09T03:12:33;100514.53;;;10.88;96.17
69624;BME280;56843;52.020;5.670;2022-09-09T03:14:04;100519.88;;;10.88;95.90
69624;BME280;56843;52.020;5.670;2022-09-09T03:15:36;100523.22;;;10.85;95.96
69624;BME280;56843;52.020;5.670;2022-09-09T03:17:07;100528.56;;;10.85;96.13
69624;BME280;56843;52.020;5.670;2022-09-09T03:18:43;100520.88;;;10.84;96.31
69624;BME280;56843;52.020;5.670;2022-09-09T03:20:15;100525.88;;;10.85;95.99
69624;BME280;56843;52.020;5.670;2022-09-09T03:21:47;100528.88;;;10.84;96.03
69624;BME280;56843;52.020;5.670;2022-09-09T03:23:17;100531.56;;;10.84;96.18
69624;BME280;56843;52.020;5.670;2022-09-09T03:24:49;100529.97;;;10.83;96.11
69624;BME280;56843;52.020;5.670;2022-09-09T03:26:20;100532.34;;;10.84;96.27
69624;BME280;56843;52.020;5.670;2022-09-09T03:27:53;100527.00;;;10.84;96.06
69624;BME280;56843;52.020;5.670;2022-09-09T03:29:25;100530.44;;;10.85;96.42
69624;BME280;56843;52.020;5.670;2022-09-09T03:31:00;100530.88;;;10.87;96.56
69624;BME280;56843;52.020;5.670;2022-09-09T03:32:30;100523.34;;;10.89;96.10
69624;BME280;56843;52.020;5.670;2022-09-09T03:34:02;100523.44;;;10.92;96.42
69624;BME280;56843;52.020;5.670;2022-09-09T03:35:36;100525.78;;;10.94;96.59
69624;BME280;56843;52.020;5.670;2022-09-09T03:37:06;100525.91;;;10.97;96.09
69624;BME280;56843;52.020;5.670;2022-09-09T03:38:37;100525.56;;;10.99;96.17
69624;BME280;56843;52.020;5.670;2022-09-09T03:40:08;100513.78;;;11.00;96.27
69624;BME280;56843;52.020;5.670;2022-09-09T03:41:40;100524.59;;;11.03;96.19
69624;BME280;56843;52.020;5.670;2022-09-09T03:43:10;100528.50;;;11.06;96.06
69624;BME280;56843;52.020;5.670;2022-09-09T03:44:41;100518.25;;;11.08;96.11
69624;BME280;56843;52.020;5.670;2022-09-09T03:46:12;100522.94;;;11.11;96.14
69624;BME280;56843;52.020;5.670;2022-09-09T03:47:43;100520.38;;;11.15;96.13
69624;BME280;56843;52.020;5.670;2022-09-09T03:49:14;100519.72;;;11.18;96.17
69624;BME280;56843;52.020;5.670;2022-09-09T03:50:50;100522.16;;;11.23;96.05
69624;BME280;56843;52.020;5.670;2022-09-09T03:52:21;100531.06;;;11.27;95.72
69624;BME280;56843;52.020;5.670;2022-09-09T03:53:56;100530.84;;;11.32;95.69
69624;BME280;56843;52.020;5.670;2022-09-09T03:55:29;100533.97;;;11.34;95.80
69624;BME280;56843;52.020;5.670;2022-09-09T03:57:00;100529.06;;;11.36;95.97
69624;BME280;56843;52.020;5.670;2022-09-09T03:58:30;100529.50;;;11.38;95.79
69624;BME280;56843;52.020;5.670;2022-09-09T04:00:07;100528.06;;;11.40;95.66
69624;BME280;56843;52.020;5.670;2022-09-09T04:01:46;100528.84;;;11.41;95.85
69624;BME280;56843;52.020;5.670;2022-09-09T04:03:17;100528.06;;;11.40;95.41
69624;BME280;56843;52.020;5.670;2022-09-09T04:04:48;100524.63;;;11.40;95.50
69624;BME280;56843;52.020;5.670;2022-09-09T04:06:19;100525.28;;;11.37;95.50
69624;BME280;56843;52.020;5.670;2022-09-09T04:07:51;100530.97;;;11.35;95.76
69624;BME280;56843;52.020;5.670;2022-09-09T04:09:22;100523.28;;;11.34;95.88
69624;BME280;56843;52.020;5.670;2022-09-09T04:10:55;100518.59;;;11.31;95.49
69624;BME280;56843;52.020;5.670;2022-09-09T04:12:28;100518.16;;;11.29;95.92
69624;BME280;56843;52.020;5.670;2022-09-09T04:13:59;100514.25;;;11.26;96.00
69624;BME280;56843;52.020;5.670;2022-09-09T04:15:30;100516.50;;;11.24;95.82
69624;BME280;56843;52.020;5.670;2022-09-09T04:17:01;100516.81;;;11.23;96.36
69624;BME280;56843;52.020;5.670;2022-09-09T04:18:34;100508.34;;;11.21;96.38
69624;BME280;56843;52.020;5.670;2022-09-09T04:20:05;100506.00;;;11.19;96.08
69624;BME280;56843;52.020;5.670;2022-09-09T04:21:37;100512.44;;;11.18;96.20
69624;BME280;56843;52.020;5.670;2022-09-09T04:23:07;100508.34;;;11.21;96.15
69624;BME280;56843;52.020;5.670;2022-09-09T04:24:38;100499.22;;;11.22;96.30
69624;BME280;56843;52.020;5.670;2022-09-09T04:26:09;100500.31;;;11.21;96.29
69624;BME280;56843;52.020;5.670;2022-09-09T04:27:40;100502.22;;;11.20;96.30
69624;BME280;56843;52.020;5.670;2022-09-09T04:29:11;100508.69;;;11.19;96.28
69624;BME280;56843;52.020;5.670;2022-09-09T04:30:42;100505.22;;;11.19;96.61
69624;BME280;56843;52.020;5.670;2022-09-09T04:32:13;100498.34;;;11.18;96.23
69624;BME280;56843;52.020;5.670;2022-09-09T04:33:44;100502.88;;;11.17;96.46
69624;BME280;56843;52.020;5.670;2022-09-09T04:35:15;100499.88;;;11.19;96.54
69624;BME280;56843;52.020;5.670;2022-09-09T04:36:46;100508.34;;;11.21;96.51
69624;BME280;56843;52.020;5.670;2022-09-09T04:38:17;100504.56;;;11.22;96.50
69624;BME280;56843;52.020;5.670;2022-09-09T04:39:48;100504.56;;;11.22;96.45
69624;BME280;56843;52.020;5.670;2022-09-09T04:41:18;100511.47;;;11.23;96.69
69624;BME280;56843;52.020;5.670;2022-09-09T04:42:52;100509.22;;;11.25;96.57
69624;BME280;56843;52.020;5.670;2022-09-09T04:44:22;100512.34;;;11.27;96.88
69624;BME280;56843;52.020;5.670;2022-09-09T04:45:53;100509.34;;;11.28;96.69
69624;BME280;56843;52.020;5.670;2022-09-09T04:47:26;100502.13;;;11.29;96.39
69624;BME280;56843;52.020;5.670;2022-09-09T04:48:57;100504.44;;;11.30;96.56
69624;BME280;56843;52.020;5.670;2022-09-09T04:50:32;100508.81;;;11.35;96.77
69624;BME280;56843;52.020;5.670;2022-09-09T04:52:03;100499.78;;;11.39;96.53
69624;BME280;56843;52.020;5.670;2022-09-09T04:53:35;100500.31;;;11.45;96.81
69624;BME280;56843;52.020;5.670;2022-09-09T04:55:06;100499.31;;;11.49;96.46
69624;BME280;56843;52.020;5.670;2022-09-09T04:56:38;100506.34;;;11.54;96.72
69624;BME280;56843;52.020;5.670;2022-09-09T04:58:08;100500.34;;;11.57;96.12
69624;BME280;56843;52.020;5.670;2022-09-09T04:59:39;100498.13;;;11.59;96.00
69624;BME280;56843;52.020;5.670;2022-09-09T05:01:19;100499.00;;;11.63;96.26
69624;BME280;56843;52.020;5.670;2022-09-09T05:02:53;100488.31;;;11.63;96.01
69624;BME280;56843;52.020;5.670;2022-09-09T05:04:23;100491.41;;;11.65;96.33
69624;BME280;56843;52.020;5.670;2022-09-09T05:05:54;100487.66;;;11.66;96.21
69624;BME280;56843;52.020;5.670;2022-09-09T05:07:27;100496.78;;;11.65;95.89
69624;BME280;56843;52.020;5.670;2022-09-09T05:08:58;100496.78;;;11.65;96.34
69624;BME280;56843;52.020;5.670;2022-09-09T05:10:33;100499.09;;;11.66;95.92
69624;BME280;56843;52.020;5.670;2022-09-09T05:12:05;100501.03;;;11.66;95.87
69624;BME280;56843;52.020;5.670;2022-09-09T05:13:39;100489.53;;;11.65;96.30
69624;BME280;56843;52.020;5.670;2022-09-09T05:15:10;100491.97;;;11.70;96.19
69624;BME280;56843;52.020;5.670;2022-09-09T05:16:42;100494.41;;;11.75;96.38
69624;BME280;56843;52.020;5.670;2022-09-09T05:18:15;100494.97;;;11.81;96.17
69624;BME280;56843;52.020;5.670;2022-09-09T05:19:47;100492.06;;;11.86;96.38
69624;BME280;56843;52.020;5.670;2022-09-09T05:21:21;100491.81;;;11.91;96.49
69624;BME280;56843;52.020;5.670;2022-09-09T05:22:56;100492.38;;;11.97;96.27
69624;BME280;56843;52.020;5.670;2022-09-09T05:24:28;100490.13;;;11.99;96.05
69624;BME280;56843;52.020;5.670;2022-09-09T05:26:02;100491.00;;;12.03;95.97
69624;BME280;56843;52.020;5.670;2022-09-09T05:27:34;100482.31;;;12.06;95.74
69624;BME280;56843;52.020;5.670;2022-09-09T05:29:05;100494.25;;;12.08;95.65
69624;BME280;56843;52.020;5.670;2022-09-09T05:30:36;100489.66;;;12.09;95.92
69624;BME280;56843;52.020;5.670;2022-09-09T05:32:08;100483.09;;;12.06;96.02
69624;BME280;56843;52.020;5.670;2022-09-09T05:33:41;100479.63;;;12.06;95.82
69624;BME280;56843;52.020;5.670;2022-09-09T05:35:13;100481.88;;;12.04;95.92
69624;BME280;56843;52.020;5.670;2022-09-09T05:36:44;100477.19;;;12.01;96.19
69624;BME280;56843;52.020;5.670;2022-09-09T05:38:14;100479.09;;;12.00;96.24
69624;BME280;56843;52.020;5.670;2022-09-09T05:39:44;100482.53;;;12.01;96.32
69624;BME280;56843;52.020;5.670;2022-09-09T05:41:16;100483.31;;;12.01;96.32
69624;BME280;56843;52.020;5.670;2022-09-09T05:42:47;100486.00;;;12.01;96.41
69624;BME280;56843;52.020;5.670;2022-09-09T05:44:18;100484.13;;;12.02;96.68
69624;BME280;56843;52.020;5.670;2022-09-09T05:46:11;100476.84;;;12.02;96.62
69624;BME280;56843;52.020;5.670;2022-09-09T05:47:42;100481.44;;;12.02;96.65
69624;BME280;56843;52.020;5.670;2022-09-09T05:49:15;100481.09;;;12.03;96.44
69624;BME280;56843;52.020;5.670;2022-09-09T05:50:52;100485.78;;;12.06;96.56
69624;BME280;56843;52.020;5.670;2022-09-09T05:52:23;100486.53;;;12.07;96.83
69624;BME280;56843;52.020;5.670;2022-09-09T05:53:56;100487.75;;;12.09;96.64
69624;BME280;56843;52.020;5.670;2022-09-09T05:55:29;100477.47;;;12.11;96.83
69624;BME280;56843;52.020;5.670;2022-09-09T05:57:00;100488.63;;;12.13;96.95
69624;BME280;56843;52.020;5.670;2022-09-09T05:58:34;100482.16;;;12.14;96.58
69624;BME280;56843;52.020;5.670;2022-09-09T06:00:05;100474.13;;;12.14;96.78
69624;BME280;56843;52.020;5.670;2022-09-09T06:01:44;100473.00;;;12.15;96.84
69624;BME280;56843;52.020;5.670;2022-09-09T06:03:23;100482.25;;;12.18;96.76
69624;BME280;56843;52.020;5.670;2022-09-09T06:04:56;100482.25;;;12.18;96.72
69624;BME280;56843;52.020;5.670;2022-09-09T06:06:34;100494.19;;;12.20;96.55
69624;BME280;56843;52.020;5.670;2022-09-09T06:08:14;100486.16;;;12.20;96.29
69624;BME280;56843;52.020;5.670;2022-09-09T06:09:45;100486.59;;;12.22;97.01
69624;BME280;56843;52.020;5.670;2022-09-09T06:11:18;100490.50;;;12.25;96.64
69624;BME280;56843;52.020;5.670;2022-09-09T06:12:52;100489.81;;;12.28;96.77
69624;BME280;56843;52.020;5.670;2022-09-09T06:14:23;100500.97;;;12.30;96.69
69624;BME280;56843;52.020;5.670;2022-09-09T06:15:56;100495.69;;;12.33;96.84
69624;BME280;56843;52.020;5.670;2022-09-09T06:17:27;100496.13;;;12.35;96.61
69624;BME280;56843;52.020;5.670;2022-09-09T06:18:58;100495.47;;;12.38;96.83
69624;BME280;56843;52.020;5.670;2022-09-09T06:20:29;100506.25;;;12.42;96.96
69624;BME280;56843;52.020;5.670;2022-09-09T06:22:01;100499.44;;;12.44;96.94
69624;BME280;56843;52.020;5.670;2022-09-09T06:23:34;100504.91;;;12.48;96.83
69624;BME280;56843;52.020;5.670;2022-09-09T06:25:09;100495.38;;;12.50;96.58
69624;BME280;56843;52.020;5.670;2022-09-09T06:26:40;100499.72;;;12.55;96.60
69624;BME280;56843;52.020;5.670;2022-09-09T06:28:11;100496.72;;;12.57;96.90
69624;BME280;56843;52.020;5.670;2022-09-09T06:29:41;100498.69;;;12.60;96.88
69624;BME280;56843;52.020;5.670;2022-09-09T06:31:14;100498.69;;;12.60;96.69
69624;BME280;56843;52.020;5.670;2022-09-09T06:32:45;100496.00;;;12.60;96.63
69624;BME280;56843;52.020;5.670;2022-09-09T06:34:16;100493.00;;;12.61;96.77
69624;BME280;56843;52.020;5.670;2022-09-09T06:35:52;100500.78;;;12.66;96.75
69624;BME280;56843;52.020;5.670;2022-09-09T06:37:24;100487.94;;;12.72;97.17
69624;BME280;56843;52.020;5.670;2022-09-09T06:38:57;100496.16;;;12.79;96.80
69624;BME280;56843;52.020;5.670;2022-09-09T06:40:27;100494.88;;;12.88;96.63
69624;BME280;56843;52.020;5.670;2022-09-09T06:41:58;100494.72;;;12.97;96.73
69624;BME280;56843;52.020;5.670;2022-09-09T06:43:55;100493.59;;;12.98;96.14
69624;BME280;56843;52.020;5.670;2022-09-09T06:45:32;100486.69;;;12.97;96.42
69624;BME280;56843;52.020;5.670;2022-09-09T06:47:03;100492.13;;;13.00;96.14
69624;BME280;56843;52.020;5.670;2022-09-09T06:48:34;100489.28;;;13.09;96.44
69624;BME280;56843;52.020;5.670;2022-09-09T06:50:05;100494.81;;;13.16;96.26
69624;BME280;56843;52.020;5.670;2022-09-09T06:51:38;100497.31;;;13.24;96.37
69624;BME280;56843;52.020;5.670;2022-09-09T06:53:16;100490.97;;;13.33;96.20
69624;BME280;56843;52.020;5.670;2022-09-09T06:54:49;100491.50;;;13.38;96.06
69624;BME280;56843;52.020;5.670;2022-09-09T06:56:24;100495.47;;;13.44;95.98
69624;BME280;56843;52.020;5.670;2022-09-09T06:57:57;100487.16;;;13.49;95.76
69624;BME280;56843;52.020;5.670;2022-09-09T06:59:28;100486.91;;;13.54;95.71
69624;BME280;56843;52.020;5.670;2022-09-09T07:01:05;100490.59;;;13.65;95.70
69624;BME280;56843;52.020;5.670;2022-09-09T07:02:37;100493.09;;;13.74;95.63
69624;BME280;56843;52.020;5.670;2022-09-09T07:04:10;100491.66;;;13.80;95.58
69624;BME280;56843;52.020;5.670;2022-09-09T07:05:42;100492.69;;;13.91;95.69
69624;BME280;56843;52.020;5.670;2022-09-09T07:07:14;100499.13;;;14.06;95.57
69624;BME280;56843;52.020;5.670;2022-09-09T07:08:51;100488.84;;;14.27;95.21
69624;BME280;56843;52.020;5.670;2022-09-09T07:10:22;100487.13;;;14.38;94.61
69624;BME280;56843;52.020;5.670;2022-09-09T07:11:52;100498.34;;;14.62;95.02
69624;BME280;56843;52.020;5.670;2022-09-09T07:13:25;100489.94;;;14.87;94.71
69624;BME280;56843;52.020;5.670;2022-09-09T07:14:56;100489.53;;;15.07;94.22
69624;BME280;56843;52.020;5.670;2022-09-09T07:16:27;100492.50;;;15.25;93.56
69624;BME280;56843;52.020;5.670;2022-09-09T07:18:01;100485.84;;;15.41;93.57
69624;BME280;56843;52.020;5.670;2022-09-09T07:19:33;100481.09;;;15.58;93.22
69624;BME280;56843;52.020;5.670;2022-09-09T07:21:05;100481.28;;;15.72;93.13
69624;BME280;56843;52.020;5.670;2022-09-09T07:22:36;100484.25;;;15.93;92.60
69624;BME280;56843;52.020;5.670;2022-09-09T07:24:07;100486.81;;;16.12;92.32
69624;BME280;56843;52.020;5.670;2022-09-09T07:25:44;100485.50;;;16.29;91.82
69624;BME280;56843;52.020;5.670;2022-09-09T07:27:15;100495.63;;;16.42;90.99
69624;BME280;56843;52.020;5.670;2022-09-09T07:28:47;100490.31;;;16.49;90.56
69624;BME280;56843;52.020;5.670;2022-09-09T07:30:18;100491.72;;;16.36;90.47
69624;BME280;56843;52.020;5.670;2022-09-09T07:31:49;100488.25;;;16.36;90.91
69624;BME280;56843;52.020;5.670;2022-09-09T07:33:26;100489.50;;;16.42;91.03
69624;BME280;56843;52.020;5.670;2022-09-09T07:34:56;100489.19;;;16.50;90.88
69624;BME280;56843;52.020;5.670;2022-09-09T07:36:32;100495.47;;;16.61;90.34
69624;BME280;56843;52.020;5.670;2022-09-09T07:38:04;100492.72;;;16.58;89.63
69624;BME280;56843;52.020;5.670;2022-09-09T07:39:36;100490.41;;;16.56;89.93
69624;BME280;56843;52.020;5.670;2022-09-09T07:41:10;100496.97;;;16.59;89.70
69624;BME280;56843;52.020;5.670;2022-09-09T07:42:42;100506.56;;;16.56;89.72
69624;BME280;56843;52.020;5.670;2022-09-09T07:44:17;100503.84;;;16.53;89.46
69624;BME280;56843;52.020;5.670;2022-09-09T07:45:58;100503.78;;;16.46;89.26
69624;BME280;56843;52.020;5.670;2022-09-09T07:47:28;100506.75;;;16.37;89.62
69624;BME280;56843;52.020;5.670;2022-09-09T07:48:59;100502.47;;;16.33;89.69
69624;BME280;56843;52.020;5.670;2022-09-09T07:50:32;100515.47;;;16.27;89.62
69624;BME280;56843;52.020;5.670;2022-09-09T07:52:03;100508.16;;;16.24;89.49
69624;BME280;56843;52.020;5.670;2022-09-09T07:53:34;100510.84;;;16.24;90.03
69624;BME280;56843;52.020;5.670;2022-09-09T07:55:06;100503.97;;;16.30;89.49
69624;BME280;56843;52.020;5.670;2022-09-09T07:56:38;100511.84;;;16.46;89.18
69624;BME280;56843;52.020;5.670;2022-09-09T07:58:10;100500.41;;;16.56;88.53
69624;BME280;56843;52.020;5.670;2022-09-09T07:59:40;100511.56;;;16.54;88.06
69624;BME280;56843;52.020;5.670;2022-09-09T08:01:16;100511.56;;;16.54;88.10
69624;BME280;56843;52.020;5.670;2022-09-09T08:02:48;100509.88;;;16.43;87.85
69624;BME280;56843;52.020;5.670;2022-09-09T08:04:20;100505.13;;;16.29;88.33
69624;BME280;56843;52.020;5.670;2022-09-09T08:05:51;100504.22;;;16.18;88.41
69624;BME280;56843;52.020;5.670;2022-09-09T08:07:22;100504.50;;;16.09;88.63
69624;BME280;56843;52.020;5.670;2022-09-09T08:08:57;100505.66;;;16.08;89.24
69624;BME280;56843;52.020;5.670;2022-09-09T08:10:28;100501.00;;;16.09;88.59
69624;BME280;56843;52.020;5.670;2022-09-09T08:11:59;100504.09;;;16.07;88.54
69624;BME280;56843;52.020;5.670;2022-09-09T08:13:31;100506.78;;;16.07;88.59
69624;BME280;56843;52.020;5.670;2022-09-09T08:15:01;100501.47;;;16.14;88.44
69624;BME280;56843;52.020;5.670;2022-09-09T08:16:40;100502.69;;;16.21;88.32
69624;BME280;56843;52.020;5.670;2022-09-09T08:18:10;100506.59;;;16.23;88.00
69624;BME280;56843;52.020;5.670;2022-09-09T08:19:41;100511.59;;;16.25;87.95
69624;BME280;56843;52.020;5.670;2022-09-09T08:21:19;100511.97;;;16.23;87.81
69624;BME280;56843;52.020;5.670;2022-09-09T08:22:50;100503.81;;;16.16;87.40
69624;BME280;56843;52.020;5.670;2022-09-09T08:24:20;100511.34;;;16.03;88.04
69624;BME280;56843;52.020;5.670;2022-09-09T08:25:53;100515.41;;;15.94;88.39
69624;BME280;56843;52.020;5.670;2022-09-09T08:27:24;100513.09;;;15.92;88.35
69624;BME280;56843;52.020;5.670;2022-09-09T08:28:58;100518.44;;;15.89;88.27
69624;BME280;56843;52.020;5.670;2022-09-09T08:30:30;100510.69;;;15.84;88.30
69624;BME280;56843;52.020;5.670;2022-09-09T08:32:01;100511.47;;;15.84;88.18
69624;BME280;56843;52.020;5.670;2022-09-09T08:33:33;100512.63;;;15.87;87.93
69624;BME280;56843;52.020;5.670;2022-09-09T08:35:04;100514.69;;;15.97;87.90
69624;BME280;56843;52.020;5.670;2022-09-09T08:36:38;100507.56;;;16.08;87.46
69624;BME280;56843;52.020;5.670;2022-09-09T08:38:08;100512.63;;;16.13;87.01
69624;BME280;56843;52.020;5.670;2022-09-09T08:39:39;100509.53;;;16.11;87.08
69624;BME280;56843;52.020;5.670;2022-09-09T08:42:54;100513.25;;;16.03;87.47
69624;BME280;56843;52.020;5.670;2022-09-09T08:50:35;100530.34;;;15.88;87.87
69624;BME280;56843;52.020;5.670;2022-09-09T08:52:31;100531.00;;;15.78;88.24
69624;BME280;56843;52.020;5.670;2022-09-09T08:54:08;100533.25;;;15.76;88.38
69624;BME280;56843;52.020;5.670;2022-09-09T08:55:56;100532.59;;;15.82;88.13
69624;BME280;56843;52.020;5.670;2022-09-09T08:57:55;100521.34;;;16.03;87.79